ACA115 CYYZ-CYVR
Flight info
| Callsign | ACA115 |
|---|---|
| Flight time | N/A |
| Altitude | 36000 |
| Route | AVSEP7 MUSIT DCT SSM DCT YQT DCT GABOV DCT SEGAP DCT WALSH/N0452F380 DCT DESNU Q888 BOOTH CANUC6 |
| Aircraft | B38M/M-SDE1FGHILORVWXY/HB1 |
Departure
| Time | 2026-05-05 15:29 |
|---|---|
| Airport | Toronto Pearson International Airport (CYYZ) |
Arrival
| Time | N/A |
|---|---|
| Airport | Vancouver International Airport (CYVR) |
| Time | Latitude | Longitude | Altitude | Speed | Heading |
|---|---|---|---|---|---|
| 2026-05-05 15:04 | 43.67993 | -79.61759 | 564 ft | 0 kts | 136° |
| 2026-05-05 15:16 | 43.68001 | -79.61769 | 564 ft | 4 kts | 136° |
| 2026-05-05 15:16 | 43.68020 | -79.61795 | 590 ft | 4 kts | 136° |
| 2026-05-05 15:16 | 43.68037 | -79.61817 | 569 ft | 4 kts | 146° |
| 2026-05-05 15:16 | 43.68058 | -79.61823 | 568 ft | 4 kts | 207° |
| 2026-05-05 15:17 | 43.68075 | -79.61803 | 568 ft | 1 kts | 226° |
| 2026-05-05 15:17 | 43.68078 | -79.61799 | 570 ft | 0 kts | 226° |
| 2026-05-05 15:20 | 43.68077 | -79.61800 | 571 ft | 1 kts | 226° |
| 2026-05-05 15:20 | 43.68069 | -79.61812 | 567 ft | 3 kts | 226° |
| 2026-05-05 15:20 | 43.68053 | -79.61835 | 571 ft | 4 kts | 226° |
| 2026-05-05 15:21 | 43.68032 | -79.61866 | 570 ft | 5 kts | 226° |
| 2026-05-05 15:21 | 43.68005 | -79.61906 | 570 ft | 7 kts | 232° |
| 2026-05-05 15:21 | 43.67988 | -79.61972 | 564 ft | 8 kts | 260° |
| 2026-05-05 15:21 | 43.67963 | -79.62035 | 573 ft | 8 kts | 226° |
| 2026-05-05 15:22 | 43.67961 | -79.62090 | 566 ft | 6 kts | 306° |
| 2026-05-05 15:22 | 43.67997 | -79.62135 | 564 ft | 8 kts | 319° |
| 2026-05-05 15:22 | 43.68042 | -79.62192 | 564 ft | 10 kts | 316° |
| 2026-05-05 15:22 | 43.68095 | -79.62262 | 569 ft | 11 kts | 317° |
| 2026-05-05 15:23 | 43.68157 | -79.62341 | 564 ft | 13 kts | 316° |
| 2026-05-05 15:23 | 43.68226 | -79.62430 | 564 ft | 14 kts | 320° |
| 2026-05-05 15:23 | 43.68305 | -79.62521 | 565 ft | 15 kts | 316° |
| 2026-05-05 15:23 | 43.68385 | -79.62629 | 568 ft | 17 kts | 316° |
| 2026-05-05 15:24 | 43.68475 | -79.62745 | 564 ft | 19 kts | 317° |
| 2026-05-05 15:24 | 43.68573 | -79.62873 | 564 ft | 19 kts | 317° |
| 2026-05-05 15:24 | 43.68676 | -79.63007 | 565 ft | 21 kts | 316° |
| 2026-05-05 15:24 | 43.68785 | -79.63149 | 564 ft | 21 kts | 317° |
| 2026-05-05 15:25 | 43.68883 | -79.63275 | 565 ft | 18 kts | 317° |
| 2026-05-05 15:25 | 43.68975 | -79.63396 | 567 ft | 19 kts | 316° |
| 2026-05-05 15:25 | 43.69062 | -79.63510 | 570 ft | 13 kts | 316° |
| 2026-05-05 15:25 | 43.69108 | -79.63542 | 575 ft | 7 kts | 7° |
| 2026-05-05 15:26 | 43.69143 | -79.63501 | 570 ft | 7 kts | 48° |
| 2026-05-05 15:26 | 43.69185 | -79.63443 | 568 ft | 10 kts | 37° |
| 2026-05-05 15:26 | 43.69257 | -79.63422 | 568 ft | 12 kts | 3° |
| 2026-05-05 15:26 | 43.69331 | -79.63421 | 567 ft | 9 kts | 353° |
| 2026-05-05 15:27 | 43.69388 | -79.63459 | 572 ft | 8 kts | 316° |
| 2026-05-05 15:27 | 43.69411 | -79.63508 | 565 ft | 4 kts | 270° |
| 2026-05-05 15:27 | 43.69400 | -79.63532 | 562 ft | 2 kts | 226° |
| 2026-05-05 15:27 | 43.69396 | -79.63539 | 569 ft | 0 kts | 226° |
| 2026-05-05 15:28 | 43.69391 | -79.63545 | 567 ft | 6 kts | 225° |
| 2026-05-05 15:28 | 43.69212 | -79.63804 | 566 ft | 75 kts | 226° |
| 2026-05-05 15:28 | 43.68690 | -79.64557 | 569 ft | 140 kts | 226° |
| 2026-05-05 15:29 | 43.67893 | -79.65699 | 669 ft | 184 kts | 229° |
| 2026-05-05 15:29 | 43.66956 | -79.66988 | 1435 ft | 191 kts | 228° |
| 2026-05-05 15:29 | 43.66004 | -79.68252 | 2426 ft | 188 kts | 227° |
| 2026-05-05 15:29 | 43.65052 | -79.69524 | 3024 ft | 194 kts | 227° |
| 2026-05-05 15:30 | 43.64108 | -79.70813 | 3695 ft | 191 kts | 229° |
| 2026-05-05 15:30 | 43.63264 | -79.72096 | 4610 ft | 180 kts | 239° |
| 2026-05-05 15:30 | 43.63023 | -79.73882 | 4762 ft | 207 kts | 273° |
| 2026-05-05 15:30 | 43.63458 | -79.75875 | 5130 ft | 227 kts | 291° |
| 2026-05-05 15:31 | 43.64210 | -79.77820 | 5722 ft | 231 kts | 288° |
| 2026-05-05 15:31 | 43.64861 | -79.79846 | 6545 ft | 230 kts | 288° |
| 2026-05-05 15:31 | 43.65544 | -79.81909 | 7134 ft | 243 kts | 288° |
| 2026-05-05 15:31 | 43.66277 | -79.84064 | 7799 ft | 246 kts | 288° |
| 2026-05-05 15:32 | 43.66954 | -79.86045 | 9270 ft | 218 kts | 286° |
| 2026-05-05 15:32 | 43.67629 | -79.87978 | 9821 ft | 232 kts | 286° |
| 2026-05-05 15:32 | 43.68362 | -79.90074 | 10084 ft | 252 kts | 287° |
| 2026-05-05 15:32 | 43.69165 | -79.92333 | 10357 ft | 273 kts | 290° |
| 2026-05-05 15:33 | 43.70474 | -79.94457 | 10654 ft | 309 kts | 314° |
| 2026-05-05 15:33 | 43.72416 | -79.95972 | 11184 ft | 328 kts | 323° |
| 2026-05-05 15:33 | 43.74431 | -79.97397 | 11838 ft | 332 kts | 323° |
| 2026-05-05 15:33 | 43.76506 | -79.98871 | 12492 ft | 337 kts | 323° |
| 2026-05-05 15:34 | 43.78600 | -80.00363 | 13215 ft | 340 kts | 323° |
| 2026-05-05 15:34 | 43.80726 | -80.01879 | 13898 ft | 345 kts | 323° |
| 2026-05-05 15:34 | 43.82873 | -80.03411 | 14562 ft | 348 kts | 323° |
| 2026-05-05 15:34 | 43.85037 | -80.04955 | 15253 ft | 351 kts | 323° |
| 2026-05-05 15:35 | 43.87190 | -80.06494 | 15945 ft | 354 kts | 323° |
| 2026-05-05 15:35 | 43.89389 | -80.08068 | 16608 ft | 357 kts | 323° |
| 2026-05-05 15:35 | 43.91609 | -80.09659 | 17267 ft | 360 kts | 322° |
| 2026-05-05 15:35 | 43.93578 | -80.11672 | 17880 ft | 345 kts | 303° |
| 2026-05-05 15:36 | 43.95082 | -80.14242 | 18370 ft | 346 kts | 300° |
| 2026-05-05 15:36 | 43.96571 | -80.16869 | 18981 ft | 346 kts | 299° |
| 2026-05-05 15:36 | 43.98048 | -80.19526 | 19556 ft | 347 kts | 298° |
| 2026-05-05 15:36 | 43.99520 | -80.22208 | 20154 ft | 348 kts | 298° |
| 2026-05-05 15:37 | 44.00971 | -80.24873 | 20763 ft | 350 kts | 297° |
| 2026-05-05 15:37 | 44.02439 | -80.27582 | 21385 ft | 349 kts | 297° |
| 2026-05-05 15:37 | 44.03903 | -80.30292 | 21956 ft | 351 kts | 297° |
| 2026-05-05 15:37 | 44.05374 | -80.33019 | 22523 ft | 352 kts | 297° |
| 2026-05-05 15:38 | 44.06348 | -80.34825 | 22886 ft | 353 kts | 297° |
| 2026-05-05 15:38 | 44.08310 | -80.38469 | 23541 ft | 356 kts | 297° |
| 2026-05-05 15:38 | 44.09800 | -80.41238 | 24006 ft | 357 kts | 297° |
| 2026-05-05 15:38 | 44.10787 | -80.43074 | 24282 ft | 358 kts | 297° |
| 2026-05-05 15:39 | 44.12286 | -80.45865 | 24705 ft | 360 kts | 297° |
| 2026-05-05 15:39 | 44.13812 | -80.48650 | 25124 ft | 366 kts | 302° |
| 2026-05-05 15:39 | 44.15603 | -80.51233 | 25573 ft | 370 kts | 303° |
| 2026-05-05 15:39 | 44.17397 | -80.53843 | 25985 ft | 372 kts | 303° |
| 2026-05-05 15:40 | 44.19177 | -80.56465 | 26398 ft | 373 kts | 303° |
| 2026-05-05 15:40 | 44.20944 | -80.59086 | 26815 ft | 374 kts | 303° |
| 2026-05-05 15:40 | 44.22726 | -80.61741 | 27190 ft | 376 kts | 303° |
| 2026-05-05 15:40 | 44.24517 | -80.64418 | 27596 ft | 378 kts | 303° |
| 2026-05-05 15:41 | 44.26320 | -80.67114 | 27921 ft | 381 kts | 303° |
| 2026-05-05 15:41 | 44.28132 | -80.69826 | 28328 ft | 382 kts | 303° |
| 2026-05-05 15:41 | 44.29950 | -80.72550 | 28690 ft | 384 kts | 303° |
| 2026-05-05 15:41 | 44.31751 | -80.75251 | 29055 ft | 385 kts | 303° |
| 2026-05-05 15:42 | 44.33579 | -80.77997 | 29408 ft | 386 kts | 303° |
| 2026-05-05 15:42 | 44.35413 | -80.80754 | 29747 ft | 388 kts | 303° |
| 2026-05-05 15:42 | 44.37261 | -80.83535 | 30049 ft | 389 kts | 303° |
| 2026-05-05 15:42 | 44.39106 | -80.86313 | 30351 ft | 390 kts | 303° |
| 2026-05-05 15:43 | 44.40942 | -80.89082 | 30645 ft | 391 kts | 303° |
| 2026-05-05 15:43 | 44.42799 | -80.91883 | 30966 ft | 392 kts | 303° |
| 2026-05-05 15:43 | 44.44633 | -80.94654 | 31315 ft | 391 kts | 302° |
| 2026-05-05 15:43 | 44.46472 | -80.97435 | 31747 ft | 388 kts | 302° |
| 2026-05-05 15:44 | 44.48305 | -81.00209 | 32175 ft | 386 kts | 302° |
| 2026-05-05 15:44 | 44.50121 | -81.02960 | 32605 ft | 383 kts | 302° |
| 2026-05-05 15:44 | 44.51927 | -81.05700 | 33019 ft | 380 kts | 302° |
| 2026-05-05 15:44 | 44.53718 | -81.08419 | 33435 ft | 378 kts | 302° |
| 2026-05-05 15:45 | 44.55474 | -81.11087 | 33813 ft | 375 kts | 302° |
| 2026-05-05 15:45 | 44.57242 | -81.13777 | 34087 ft | 375 kts | 302° |
| 2026-05-05 15:45 | 44.59015 | -81.16477 | 34260 ft | 377 kts | 302° |
| 2026-05-05 15:45 | 44.60803 | -81.19201 | 34418 ft | 379 kts | 302° |
| 2026-05-05 15:46 | 44.62573 | -81.21902 | 34596 ft | 380 kts | 302° |
| 2026-05-05 15:46 | 44.64370 | -81.24645 | 34750 ft | 382 kts | 302° |
| 2026-05-05 15:46 | 44.66173 | -81.27402 | 34940 ft | 383 kts | 302° |
| 2026-05-05 15:46 | 44.67982 | -81.30171 | 35122 ft | 386 kts | 302° |
| 2026-05-05 15:47 | 44.69806 | -81.32964 | 35236 ft | 388 kts | 302° |
| 2026-05-05 15:47 | 44.71617 | -81.35738 | 35403 ft | 390 kts | 302° |
| 2026-05-05 15:47 | 44.73455 | -81.38559 | 35550 ft | 391 kts | 302° |
| 2026-05-05 15:47 | 44.75300 | -81.41394 | 35705 ft | 392 kts | 302° |
| 2026-05-05 15:48 | 44.77148 | -81.44236 | 35768 ft | 394 kts | 302° |
| 2026-05-05 15:48 | 44.80851 | -81.49938 | 35768 ft | 393 kts | 302° |
| 2026-05-05 15:49 | 44.84521 | -81.55602 | 35775 ft | 393 kts | 302° |
| 2026-05-05 15:49 | 44.88215 | -81.61315 | 35802 ft | 393 kts | 302° |
| 2026-05-05 15:50 | 44.91888 | -81.67007 | 35778 ft | 391 kts | 302° |
| 2026-05-05 15:50 | 44.95521 | -81.72645 | 35790 ft | 391 kts | 302° |
| 2026-05-05 15:51 | 44.99176 | -81.78328 | 35793 ft | 391 kts | 302° |
| 2026-05-05 15:51 | 45.02834 | -81.84024 | 35793 ft | 391 kts | 302° |
| 2026-05-05 15:52 | 45.06490 | -81.89723 | 35791 ft | 391 kts | 302° |
| 2026-05-05 15:52 | 45.10147 | -81.95435 | 35822 ft | 391 kts | 302° |
| 2026-05-05 15:53 | 45.13785 | -82.01128 | 35791 ft | 390 kts | 302° |
| 2026-05-05 15:53 | 45.17405 | -82.06805 | 35785 ft | 390 kts | 302° |
| 2026-05-05 15:54 | 45.21040 | -82.12517 | 35779 ft | 390 kts | 302° |
| 2026-05-05 15:54 | 45.24687 | -82.18260 | 35781 ft | 390 kts | 302° |
| 2026-05-05 15:55 | 45.28299 | -82.23959 | 35775 ft | 390 kts | 302° |
| 2026-05-05 15:55 | 45.31927 | -82.29695 | 35832 ft | 389 kts | 301° |
| 2026-05-05 15:56 | 45.35549 | -82.35433 | 35784 ft | 391 kts | 301° |
| 2026-05-05 15:56 | 45.39162 | -82.41176 | 35771 ft | 390 kts | 300° |
| 2026-05-05 15:57 | 45.42476 | -82.47219 | 35779 ft | 387 kts | 298° |
| 2026-05-05 15:57 | 45.45777 | -82.53211 | 35764 ft | 386 kts | 298° |
| 2026-05-05 15:58 | 45.49112 | -82.59257 | 35770 ft | 386 kts | 298° |
| 2026-05-05 15:58 | 45.52439 | -82.65299 | 35772 ft | 387 kts | 298° |
| 2026-05-05 15:59 | 45.55749 | -82.71322 | 35769 ft | 389 kts | 298° |
| 2026-05-05 15:59 | 45.59100 | -82.77433 | 35762 ft | 391 kts | 298° |
| 2026-05-05 16:00 | 45.62447 | -82.83550 | 35769 ft | 391 kts | 298° |
| 2026-05-05 16:00 | 45.65774 | -82.89645 | 35767 ft | 390 kts | 298° |
| 2026-05-05 16:01 | 45.69117 | -82.95779 | 35800 ft | 391 kts | 298° |
| 2026-05-05 16:01 | 45.72480 | -83.01967 | 35774 ft | 394 kts | 298° |
| 2026-05-05 16:02 | 45.75829 | -83.08142 | 35776 ft | 394 kts | 298° |
| 2026-05-05 16:02 | 45.79203 | -83.14376 | 35776 ft | 398 kts | 299° |
| 2026-05-05 16:03 | 45.82606 | -83.20676 | 35769 ft | 398 kts | 299° |
| 2026-05-05 16:03 | 45.85981 | -83.26941 | 35772 ft | 398 kts | 299° |
| 2026-05-05 16:04 | 45.89376 | -83.33255 | 35778 ft | 399 kts | 299° |
| 2026-05-05 16:04 | 45.92747 | -83.39541 | 35774 ft | 399 kts | 299° |
| 2026-05-05 16:05 | 45.96137 | -83.45874 | 35771 ft | 399 kts | 299° |
| 2026-05-05 16:05 | 45.99526 | -83.52221 | 35801 ft | 400 kts | 300° |
| 2026-05-05 16:06 | 46.02931 | -83.58612 | 35773 ft | 405 kts | 300° |
| 2026-05-05 16:06 | 46.06367 | -83.65076 | 35769 ft | 405 kts | 300° |
| 2026-05-05 16:07 | 46.09777 | -83.71506 | 35769 ft | 407 kts | 300° |
| 2026-05-05 16:07 | 46.13210 | -83.77996 | 35767 ft | 407 kts | 300° |
| 2026-05-05 16:08 | 46.16622 | -83.84458 | 35764 ft | 406 kts | 300° |
| 2026-05-05 16:08 | 46.20050 | -83.90968 | 35759 ft | 406 kts | 300° |
| 2026-05-05 16:09 | 46.23485 | -83.97504 | 35753 ft | 410 kts | 300° |
| 2026-05-05 16:09 | 46.26916 | -84.04049 | 35747 ft | 412 kts | 300° |
| 2026-05-05 16:10 | 46.30388 | -84.10689 | 35751 ft | 413 kts | 300° |
| 2026-05-05 16:10 | 46.33840 | -84.17301 | 35752 ft | 413 kts | 300° |
| 2026-05-05 16:11 | 46.37297 | -84.23939 | 35750 ft | 413 kts | 300° |
| 2026-05-05 16:12 | 46.43628 | -84.37633 | 35811 ft | 408 kts | 294° |
| 2026-05-05 16:13 | 46.50732 | -84.55692 | 35767 ft | 413 kts | 294° |
| 2026-05-05 16:13 | 46.53574 | -84.62959 | 35767 ft | 413 kts | 294° |
| 2026-05-05 16:14 | 46.59245 | -84.77518 | 35774 ft | 413 kts | 294° |
| 2026-05-05 16:15 | 46.64881 | -84.92064 | 35792 ft | 414 kts | 294° |
| 2026-05-05 16:16 | 46.70502 | -85.06651 | 35793 ft | 413 kts | 294° |
| 2026-05-05 16:17 | 46.74715 | -85.17634 | 35798 ft | 413 kts | 294° |
| 2026-05-05 16:18 | 46.78898 | -85.28585 | 35798 ft | 413 kts | 294° |
| 2026-05-05 16:19 | 46.83092 | -85.39610 | 35796 ft | 413 kts | 294° |
| 2026-05-05 16:19 | 46.87256 | -85.50599 | 35796 ft | 413 kts | 294° |
| 2026-05-05 16:20 | 46.92837 | -85.65399 | 35793 ft | 417 kts | 294° |
| 2026-05-05 16:22 | 46.99787 | -85.83942 | 35793 ft | 417 kts | 294° |
| 2026-05-05 16:23 | 47.05350 | -85.98879 | 35797 ft | 417 kts | 294° |
| 2026-05-05 16:23 | 47.09496 | -86.10067 | 35786 ft | 417 kts | 294° |
| 2026-05-05 16:24 | 47.12267 | -86.17567 | 35826 ft | 417 kts | 294° |
| 2026-05-05 16:25 | 47.16423 | -86.28862 | 35791 ft | 420 kts | 294° |
| 2026-05-05 16:25 | 47.20570 | -86.40177 | 35791 ft | 419 kts | 294° |
| 2026-05-05 16:26 | 47.26091 | -86.55319 | 35787 ft | 419 kts | 294° |
| 2026-05-05 16:27 | 47.28829 | -86.62858 | 35787 ft | 419 kts | 294° |
| 2026-05-05 16:27 | 47.31578 | -86.70450 | 35785 ft | 419 kts | 294° |
| 2026-05-05 16:28 | 47.33855 | -86.76756 | 35787 ft | 419 kts | 294° |
| 2026-05-05 16:28 | 47.37042 | -86.85608 | 35793 ft | 421 kts | 295° |
| 2026-05-05 16:29 | 47.39342 | -86.92013 | 35789 ft | 421 kts | 294° |
| 2026-05-05 16:29 | 47.42062 | -86.99611 | 35789 ft | 421 kts | 294° |
| 2026-05-05 16:30 | 47.44795 | -87.07264 | 35785 ft | 421 kts | 294° |
| 2026-05-05 16:30 | 47.47513 | -87.14897 | 35784 ft | 419 kts | 295° |
| 2026-05-05 16:31 | 47.50230 | -87.22552 | 35780 ft | 419 kts | 295° |
| 2026-05-05 16:31 | 47.52927 | -87.30170 | 35774 ft | 419 kts | 294° |
| 2026-05-05 16:32 | 47.55628 | -87.37824 | 35775 ft | 419 kts | 294° |
| 2026-05-05 16:32 | 47.58334 | -87.45512 | 35778 ft | 421 kts | 295° |
| 2026-05-05 16:33 | 47.61027 | -87.53189 | 35770 ft | 422 kts | 295° |
| 2026-05-05 16:33 | 47.63731 | -87.60918 | 35765 ft | 421 kts | 295° |
| 2026-05-05 16:34 | 47.66410 | -87.68599 | 35768 ft | 421 kts | 295° |
| 2026-05-05 16:34 | 47.69102 | -87.76338 | 35772 ft | 421 kts | 294° |
| 2026-05-05 16:35 | 47.71787 | -87.84080 | 35770 ft | 421 kts | 294° |
| 2026-05-05 16:35 | 47.74464 | -87.91824 | 35772 ft | 421 kts | 294° |
| 2026-05-05 16:36 | 47.77116 | -87.99518 | 35770 ft | 419 kts | 294° |
| 2026-05-05 16:36 | 47.79773 | -88.07248 | 35782 ft | 421 kts | 294° |
| 2026-05-05 16:37 | 47.82449 | -88.15058 | 35774 ft | 424 kts | 294° |
| 2026-05-05 16:37 | 47.85104 | -88.22831 | 35768 ft | 423 kts | 294° |
| 2026-05-05 16:38 | 47.87772 | -88.30664 | 35768 ft | 423 kts | 294° |
| 2026-05-05 16:38 | 47.90428 | -88.38484 | 35759 ft | 422 kts | 294° |
| 2026-05-05 16:39 | 47.93078 | -88.46312 | 35765 ft | 422 kts | 294° |
| 2026-05-05 16:39 | 47.95722 | -88.54145 | 35776 ft | 422 kts | 294° |
| 2026-05-05 16:40 | 47.98347 | -88.61948 | 35770 ft | 422 kts | 294° |
| 2026-05-05 16:40 | 48.00982 | -88.69801 | 35790 ft | 422 kts | 294° |
| 2026-05-05 16:41 | 48.03600 | -88.77629 | 35767 ft | 424 kts | 294° |
| 2026-05-05 16:41 | 48.06228 | -88.85512 | 35762 ft | 423 kts | 294° |
| 2026-05-05 16:42 | 48.08844 | -88.93378 | 35763 ft | 423 kts | 294° |
| 2026-05-05 16:42 | 48.11461 | -89.01268 | 35765 ft | 423 kts | 294° |
| 2026-05-05 16:43 | 48.14062 | -89.09131 | 35766 ft | 423 kts | 294° |
| 2026-05-05 16:43 | 48.16672 | -89.17045 | 35766 ft | 422 kts | 294° |
| 2026-05-05 16:44 | 48.19254 | -89.24900 | 35768 ft | 422 kts | 294° |
| 2026-05-05 16:44 | 48.21854 | -89.32831 | 35774 ft | 422 kts | 294° |
| 2026-05-05 16:45 | 48.24434 | -89.40725 | 35775 ft | 426 kts | 294° |
| 2026-05-05 16:45 | 48.26843 | -89.48874 | 35788 ft | 426 kts | 292° |
| 2026-05-05 16:46 | 48.29190 | -89.56987 | 35780 ft | 426 kts | 292° |
| 2026-05-05 16:46 | 48.31558 | -89.65151 | 35783 ft | 426 kts | 292° |
| 2026-05-05 16:47 | 48.33922 | -89.73325 | 35784 ft | 426 kts | 292° |
| 2026-05-05 16:47 | 48.36283 | -89.81514 | 35789 ft | 426 kts | 292° |
| 2026-05-05 16:48 | 48.38619 | -89.89645 | 35792 ft | 426 kts | 292° |
| 2026-05-05 16:48 | 48.40965 | -89.97836 | 35787 ft | 426 kts | 292° |
| 2026-05-05 16:49 | 48.43309 | -90.06052 | 35786 ft | 426 kts | 291° |
| 2026-05-05 16:49 | 48.45634 | -90.14225 | 35790 ft | 428 kts | 291° |
| 2026-05-05 16:50 | 48.47976 | -90.22489 | 35794 ft | 429 kts | 291° |
| 2026-05-05 16:50 | 48.50313 | -90.30767 | 35790 ft | 429 kts | 291° |
| 2026-05-05 16:51 | 48.52645 | -90.39050 | 35790 ft | 429 kts | 291° |
| 2026-05-05 16:51 | 48.54959 | -90.47300 | 35787 ft | 428 kts | 291° |
| 2026-05-05 16:52 | 48.57284 | -90.55618 | 35790 ft | 428 kts | 291° |
| 2026-05-05 16:52 | 48.59585 | -90.63880 | 35795 ft | 428 kts | 291° |
| 2026-05-05 16:53 | 48.61893 | -90.72192 | 35799 ft | 428 kts | 291° |
| 2026-05-05 16:53 | 48.64193 | -90.80511 | 35803 ft | 428 kts | 291° |
| 2026-05-05 16:54 | 48.66478 | -90.88799 | 35805 ft | 430 kts | 291° |
| 2026-05-05 16:54 | 48.68780 | -90.97181 | 35802 ft | 432 kts | 291° |
| 2026-05-05 16:55 | 48.71080 | -91.05585 | 35807 ft | 431 kts | 291° |
| 2026-05-05 16:55 | 48.73364 | -91.13961 | 35806 ft | 431 kts | 291° |
| 2026-05-05 16:56 | 48.75641 | -91.22339 | 35812 ft | 432 kts | 291° |
| 2026-05-05 16:56 | 48.77927 | -91.30782 | 35811 ft | 432 kts | 291° |
| 2026-05-05 16:57 | 48.80192 | -91.39177 | 35809 ft | 431 kts | 291° |
| 2026-05-05 16:57 | 48.82459 | -91.47613 | 35819 ft | 431 kts | 291° |
| 2026-05-05 16:58 | 48.84709 | -91.56011 | 35818 ft | 431 kts | 291° |
| 2026-05-05 16:58 | 48.86963 | -91.64456 | 35823 ft | 431 kts | 291° |
| 2026-05-05 16:59 | 48.89208 | -91.72898 | 35822 ft | 431 kts | 291° |
| 2026-05-05 16:59 | 48.91435 | -91.81307 | 35827 ft | 430 kts | 291° |
| 2026-05-05 17:00 | 48.93667 | -91.89762 | 35830 ft | 430 kts | 291° |
| 2026-05-05 17:00 | 48.95876 | -91.98160 | 35839 ft | 430 kts | 291° |
| 2026-05-05 17:01 | 48.98096 | -92.06633 | 35839 ft | 430 kts | 291° |
| 2026-05-05 17:01 | 49.00310 | -92.15111 | 35844 ft | 430 kts | 291° |
| 2026-05-05 17:02 | 49.02515 | -92.23588 | 35838 ft | 430 kts | 291° |
| 2026-05-05 17:02 | 49.04701 | -92.32024 | 35852 ft | 430 kts | 291° |
| 2026-05-05 17:03 | 49.06899 | -92.40532 | 35856 ft | 432 kts | 291° |
| 2026-05-05 17:03 | 49.09099 | -92.49088 | 35858 ft | 433 kts | 291° |
| 2026-05-05 17:04 | 49.11283 | -92.57609 | 35857 ft | 433 kts | 290° |
| 2026-05-05 17:04 | 49.13477 | -92.66204 | 35857 ft | 433 kts | 290° |
| 2026-05-05 17:05 | 49.15646 | -92.74734 | 35862 ft | 433 kts | 290° |
| 2026-05-05 17:05 | 49.17824 | -92.83328 | 35870 ft | 433 kts | 290° |
| 2026-05-05 17:06 | 49.19994 | -92.91925 | 35871 ft | 433 kts | 290° |
| 2026-05-05 17:06 | 49.22142 | -93.00465 | 35870 ft | 433 kts | 290° |
| 2026-05-05 17:07 | 49.24296 | -93.09066 | 35871 ft | 433 kts | 290° |
| 2026-05-05 17:07 | 49.26448 | -93.17689 | 35882 ft | 433 kts | 290° |
| 2026-05-05 17:08 | 49.28586 | -93.26289 | 35882 ft | 435 kts | 290° |
| 2026-05-05 17:08 | 49.30731 | -93.34954 | 35878 ft | 435 kts | 290° |
| 2026-05-05 17:09 | 49.32873 | -93.43639 | 35876 ft | 435 kts | 290° |
| 2026-05-05 17:09 | 49.35008 | -93.52329 | 35875 ft | 435 kts | 290° |
| 2026-05-05 17:10 | 49.37125 | -93.60973 | 35877 ft | 435 kts | 290° |
| 2026-05-05 17:10 | 49.39253 | -93.69690 | 35877 ft | 435 kts | 290° |
| 2026-05-05 17:11 | 49.41363 | -93.78366 | 35886 ft | 435 kts | 290° |
| 2026-05-05 17:11 | 49.43479 | -93.87099 | 35887 ft | 435 kts | 290° |
| 2026-05-05 17:12 | 49.45585 | -93.95826 | 35894 ft | 435 kts | 290° |
| 2026-05-05 17:12 | 49.47628 | -94.04554 | 35887 ft | 436 kts | 283° |
| 2026-05-05 17:13 | 49.48578 | -94.13776 | 35879 ft | 438 kts | 279° |
| 2026-05-05 17:13 | 49.49505 | -94.23036 | 35903 ft | 438 kts | 279° |
| 2026-05-05 17:14 | 49.50409 | -94.32294 | 35896 ft | 437 kts | 279° |
| 2026-05-05 17:14 | 49.51306 | -94.41559 | 35896 ft | 437 kts | 279° |
| 2026-05-05 17:15 | 49.52195 | -94.50823 | 35899 ft | 438 kts | 279° |
| 2026-05-05 17:15 | 49.53072 | -94.60061 | 35907 ft | 438 kts | 279° |
| 2026-05-05 17:16 | 49.53948 | -94.69356 | 35931 ft | 438 kts | 279° |
| 2026-05-05 17:16 | 49.54669 | -94.77072 | 35931 ft | 438 kts | 278° |
| 2026-05-05 17:17 | 49.55531 | -94.86367 | 35936 ft | 438 kts | 278° |
| 2026-05-05 17:17 | 49.56387 | -94.95687 | 35923 ft | 438 kts | 278° |
| 2026-05-05 17:18 | 49.57231 | -95.04956 | 35941 ft | 438 kts | 278° |
| 2026-05-05 17:18 | 49.58071 | -95.14264 | 35939 ft | 438 kts | 278° |
| 2026-05-05 17:19 | 49.58898 | -95.23521 | 35952 ft | 438 kts | 278° |
| 2026-05-05 17:19 | 49.59724 | -95.32851 | 35946 ft | 438 kts | 278° |
| 2026-05-05 17:20 | 49.60536 | -95.42107 | 35950 ft | 438 kts | 278° |
| 2026-05-05 17:20 | 49.61345 | -95.51420 | 35954 ft | 437 kts | 278° |
| 2026-05-05 17:21 | 49.62146 | -95.60734 | 35964 ft | 438 kts | 278° |
| 2026-05-05 17:22 | 49.63332 | -95.74681 | 35966 ft | 438 kts | 278° |
| 2026-05-05 17:22 | 49.64119 | -95.84053 | 35977 ft | 440 kts | 278° |
| 2026-05-05 17:23 | 49.64892 | -95.93348 | 35977 ft | 439 kts | 278° |
| 2026-05-05 17:23 | 49.65661 | -96.02688 | 35971 ft | 438 kts | 278° |
| 2026-05-05 17:24 | 49.66424 | -96.12058 | 35972 ft | 439 kts | 278° |
| 2026-05-05 17:24 | 49.67180 | -96.21428 | 35987 ft | 439 kts | 278° |
| 2026-05-05 17:25 | 49.67924 | -96.30749 | 35985 ft | 438 kts | 278° |
| 2026-05-05 17:25 | 49.68664 | -96.40114 | 35987 ft | 439 kts | 278° |
| 2026-05-05 17:26 | 49.69393 | -96.49446 | 35982 ft | 440 kts | 278° |
| 2026-05-05 17:26 | 49.70119 | -96.58831 | 35993 ft | 440 kts | 278° |
| 2026-05-05 17:27 | 49.70839 | -96.68246 | 35995 ft | 439 kts | 278° |
| 2026-05-05 17:27 | 49.71545 | -96.77577 | 35983 ft | 440 kts | 278° |
| 2026-05-05 17:28 | 49.72251 | -96.86998 | 35993 ft | 441 kts | 278° |
| 2026-05-05 17:28 | 49.72947 | -96.96402 | 35990 ft | 439 kts | 278° |
| 2026-05-05 17:29 | 49.73631 | -97.05759 | 35990 ft | 440 kts | 278° |
| 2026-05-05 17:29 | 49.74312 | -97.15169 | 35987 ft | 440 kts | 278° |
| 2026-05-05 17:30 | 49.74987 | -97.24605 | 35975 ft | 441 kts | 278° |
| 2026-05-05 17:30 | 49.75651 | -97.33987 | 35985 ft | 441 kts | 278° |
| 2026-05-05 17:31 | 49.76311 | -97.43440 | 35996 ft | 442 kts | 278° |
| 2026-05-05 17:31 | 49.76962 | -97.52860 | 36021 ft | 442 kts | 278° |
| 2026-05-05 17:32 | 49.77608 | -97.62332 | 36025 ft | 441 kts | 278° |
| 2026-05-05 17:32 | 49.78245 | -97.71788 | 36008 ft | 441 kts | 277° |
| 2026-05-05 17:33 | 49.78872 | -97.81210 | 36032 ft | 444 kts | 277° |
| 2026-05-05 17:33 | 49.79496 | -97.90709 | 36021 ft | 443 kts | 277° |
| 2026-05-05 17:34 | 49.80112 | -98.00203 | 36017 ft | 443 kts | 277° |
| 2026-05-05 17:34 | 49.80721 | -98.09713 | 36014 ft | 443 kts | 277° |
| 2026-05-05 17:35 | 49.81318 | -98.19162 | 35994 ft | 443 kts | 277° |
| 2026-05-05 17:35 | 49.81911 | -98.28669 | 36004 ft | 443 kts | 277° |
| 2026-05-05 17:36 | 49.82497 | -98.38185 | 36009 ft | 443 kts | 277° |
| 2026-05-05 17:36 | 49.83073 | -98.47671 | 36039 ft | 443 kts | 277° |
| 2026-05-05 17:37 | 49.83639 | -98.57130 | 36045 ft | 443 kts | 277° |
| 2026-05-05 17:37 | 49.84202 | -98.66661 | 36044 ft | 443 kts | 277° |
| 2026-05-05 17:38 | 49.84754 | -98.76140 | 36044 ft | 443 kts | 277° |
| 2026-05-05 17:38 | 49.85300 | -98.85657 | 36044 ft | 443 kts | 277° |
| 2026-05-05 17:39 | 49.85840 | -98.95195 | 36044 ft | 445 kts | 277° |
| 2026-05-05 17:39 | 49.86370 | -99.04720 | 36046 ft | 445 kts | 277° |
| 2026-05-05 17:40 | 49.86898 | -99.14327 | 36043 ft | 445 kts | 277° |
| 2026-05-05 17:40 | 49.87414 | -99.23877 | 36051 ft | 446 kts | 277° |
| 2026-05-05 17:41 | 49.87926 | -99.33502 | 36050 ft | 446 kts | 277° |
| 2026-05-05 17:41 | 49.88428 | -99.43030 | 36050 ft | 446 kts | 277° |
| 2026-05-05 17:42 | 49.88927 | -99.52643 | 36045 ft | 446 kts | 276° |
| 2026-05-05 17:42 | 49.89418 | -99.62254 | 36029 ft | 446 kts | 276° |
| 2026-05-05 17:43 | 49.89899 | -99.71809 | 36025 ft | 446 kts | 276° |
| 2026-05-05 17:43 | 49.90375 | -99.81426 | 36017 ft | 447 kts | 276° |
| 2026-05-05 17:44 | 49.90842 | -99.91014 | 36019 ft | 447 kts | 276° |
| 2026-05-05 17:44 | 49.91368 | -100.00616 | 36018 ft | 446 kts | 277° |
| 2026-05-05 17:45 | 49.91920 | -100.10243 | 36016 ft | 446 kts | 277° |
| 2026-05-05 17:45 | 49.92460 | -100.19798 | 36065 ft | 446 kts | 277° |
| 2026-05-05 17:46 | 49.92995 | -100.29397 | 36059 ft | 446 kts | 277° |
| 2026-05-05 17:46 | 49.93519 | -100.38953 | 36061 ft | 446 kts | 277° |
| 2026-05-05 17:47 | 49.94039 | -100.48568 | 36065 ft | 446 kts | 277° |
| 2026-05-05 17:47 | 49.94551 | -100.58182 | 36060 ft | 447 kts | 277° |
| 2026-05-05 17:48 | 49.95055 | -100.67816 | 36061 ft | 447 kts | 277° |
| 2026-05-05 17:48 | 49.95549 | -100.77397 | 36065 ft | 447 kts | 277° |
| 2026-05-05 17:49 | 49.96039 | -100.87049 | 36063 ft | 447 kts | 277° |
| 2026-05-05 17:49 | 49.96516 | -100.96631 | 36063 ft | 447 kts | 277° |
| 2026-05-05 17:50 | 49.96990 | -101.06279 | 36070 ft | 447 kts | 277° |
| 2026-05-05 17:50 | 49.97452 | -101.15881 | 36070 ft | 447 kts | 277° |
| 2026-05-05 17:51 | 49.97909 | -101.25525 | 36073 ft | 447 kts | 277° |
| 2026-05-05 17:51 | 49.98356 | -101.35127 | 36077 ft | 447 kts | 276° |
| 2026-05-05 17:52 | 49.98797 | -101.44794 | 36077 ft | 447 kts | 276° |
| 2026-05-05 17:52 | 49.99230 | -101.54439 | 36077 ft | 447 kts | 276° |
| 2026-05-05 17:53 | 49.99653 | -101.64049 | 36077 ft | 447 kts | 276° |
| 2026-05-05 17:53 | 50.00070 | -101.73709 | 36081 ft | 447 kts | 276° |
| 2026-05-05 17:54 | 50.00479 | -101.83367 | 36078 ft | 447 kts | 276° |
| 2026-05-05 17:54 | 50.00877 | -101.92975 | 36063 ft | 447 kts | 276° |
| 2026-05-05 17:55 | 50.01271 | -102.02656 | 36081 ft | 448 kts | 276° |
| 2026-05-05 17:55 | 50.01657 | -102.12353 | 36086 ft | 448 kts | 276° |
| 2026-05-05 17:56 | 50.02033 | -102.21987 | 36081 ft | 449 kts | 276° |
| 2026-05-05 17:56 | 50.02404 | -102.31706 | 36083 ft | 449 kts | 276° |
| 2026-05-05 17:57 | 50.02766 | -102.41410 | 36067 ft | 449 kts | 276° |
| 2026-05-05 17:57 | 50.03119 | -102.51085 | 36090 ft | 450 kts | 276° |
| 2026-05-05 17:58 | 50.03466 | -102.60825 | 36089 ft | 450 kts | 276° |
| 2026-05-05 17:58 | 50.03802 | -102.70494 | 36090 ft | 450 kts | 276° |
| 2026-05-05 17:59 | 50.04133 | -102.80229 | 36091 ft | 450 kts | 276° |
| 2026-05-05 17:59 | 50.04454 | -102.89926 | 36072 ft | 450 kts | 276° |
| 2026-05-05 18:00 | 50.04769 | -102.99676 | 36092 ft | 450 kts | 276° |
| 2026-05-05 18:00 | 50.05075 | -103.09412 | 36097 ft | 450 kts | 276° |
| 2026-05-05 18:01 | 50.05371 | -103.19089 | 36095 ft | 450 kts | 276° |
| 2026-05-05 18:01 | 50.05661 | -103.28848 | 36097 ft | 450 kts | 276° |
| 2026-05-05 18:02 | 50.05944 | -103.38599 | 36098 ft | 450 kts | 276° |
| 2026-05-05 18:02 | 50.06216 | -103.48299 | 36102 ft | 450 kts | 276° |
| 2026-05-05 18:03 | 50.06437 | -103.56409 | 36101 ft | 450 kts | 276° |
| 2026-05-05 18:03 | 50.06696 | -103.66177 | 36099 ft | 450 kts | 276° |
| 2026-05-05 18:04 | 50.06947 | -103.75926 | 36100 ft | 451 kts | 276° |
| 2026-05-05 18:04 | 50.07190 | -103.85669 | 36089 ft | 451 kts | 276° |
| 2026-05-05 18:05 | 50.07424 | -103.95445 | 36100 ft | 451 kts | 276° |
| 2026-05-05 18:05 | 50.07651 | -104.05229 | 36113 ft | 451 kts | 276° |
| 2026-05-05 18:06 | 50.07867 | -104.14928 | 36111 ft | 451 kts | 276° |
| 2026-05-05 18:06 | 50.08078 | -104.24713 | 36122 ft | 451 kts | 275° |
| 2026-05-05 18:07 | 50.08280 | -104.34490 | 36107 ft | 451 kts | 276° |
| 2026-05-05 18:07 | 50.08474 | -104.44281 | 36130 ft | 451 kts | 276° |
| 2026-05-05 18:08 | 50.08658 | -104.54004 | 36126 ft | 451 kts | 275° |
| 2026-05-05 18:08 | 50.08836 | -104.63795 | 36140 ft | 452 kts | 275° |
| 2026-05-05 18:09 | 50.09005 | -104.73541 | 36142 ft | 452 kts | 275° |
| 2026-05-05 18:09 | 50.09166 | -104.83329 | 36137 ft | 451 kts | 275° |
| 2026-05-05 18:10 | 50.09319 | -104.93116 | 36145 ft | 451 kts | 275° |
| 2026-05-05 18:10 | 50.09462 | -105.02843 | 36158 ft | 451 kts | 275° |
| 2026-05-05 18:11 | 50.09599 | -105.12632 | 36153 ft | 451 kts | 275° |
| 2026-05-05 18:11 | 50.09726 | -105.22366 | 36165 ft | 451 kts | 275° |
| 2026-05-05 18:12 | 50.09846 | -105.32143 | 36147 ft | 451 kts | 275° |
| 2026-05-05 18:12 | 50.09958 | -105.41933 | 36150 ft | 451 kts | 275° |
| 2026-05-05 18:13 | 50.10062 | -105.51741 | 36145 ft | 451 kts | 275° |
| 2026-05-05 18:13 | 50.10156 | -105.61486 | 36147 ft | 451 kts | 275° |
| 2026-05-05 18:14 | 50.10244 | -105.71281 | 36149 ft | 451 kts | 275° |
| 2026-05-05 18:14 | 50.10322 | -105.81011 | 36154 ft | 452 kts | 275° |
| 2026-05-05 18:15 | 50.10393 | -105.90816 | 36159 ft | 451 kts | 275° |
| 2026-05-05 18:15 | 50.10455 | -106.00562 | 36176 ft | 452 kts | 275° |
| 2026-05-05 18:16 | 50.10509 | -106.10357 | 36175 ft | 452 kts | 275° |
| 2026-05-05 18:16 | 50.10555 | -106.20150 | 36177 ft | 452 kts | 275° |
| 2026-05-05 18:17 | 50.10593 | -106.29955 | 36171 ft | 452 kts | 275° |
| 2026-05-05 18:17 | 50.10622 | -106.39696 | 36176 ft | 452 kts | 275° |
| 2026-05-05 18:18 | 50.10644 | -106.49503 | 36173 ft | 452 kts | 275° |
| 2026-05-05 18:18 | 50.10657 | -106.59327 | 36174 ft | 452 kts | 275° |
| 2026-05-05 18:19 | 50.10662 | -106.69069 | 36146 ft | 452 kts | 275° |
| 2026-05-05 18:19 | 50.10659 | -106.78874 | 36173 ft | 452 kts | 275° |
| 2026-05-05 18:20 | 50.10647 | -106.88689 | 36178 ft | 452 kts | 275° |
| 2026-05-05 18:20 | 50.10627 | -106.98450 | 36184 ft | 453 kts | 275° |
| 2026-05-05 18:21 | 50.10599 | -107.08297 | 36192 ft | 453 kts | 275° |
| 2026-05-05 18:21 | 50.10563 | -107.18042 | 36164 ft | 453 kts | 275° |
| 2026-05-05 18:22 | 50.10518 | -107.27865 | 36188 ft | 453 kts | 275° |
| 2026-05-05 18:22 | 50.10465 | -107.37685 | 36170 ft | 453 kts | 275° |
| 2026-05-05 18:23 | 50.10404 | -107.47443 | 36174 ft | 453 kts | 275° |
| 2026-05-05 18:23 | 50.10335 | -107.57260 | 36163 ft | 453 kts | 275° |
| 2026-05-05 18:24 | 50.10258 | -107.67086 | 36140 ft | 453 kts | 275° |
| 2026-05-05 18:24 | 50.10172 | -107.76851 | 36164 ft | 453 kts | 275° |
| 2026-05-05 18:25 | 50.10077 | -107.86678 | 36206 ft | 453 kts | 275° |
| 2026-05-05 18:25 | 50.09975 | -107.96443 | 36206 ft | 453 kts | 275° |
| 2026-05-05 18:26 | 50.09864 | -108.06274 | 36212 ft | 453 kts | 275° |
| 2026-05-05 18:26 | 50.09745 | -108.16120 | 36217 ft | 453 kts | 275° |
| 2026-05-05 18:27 | 50.09618 | -108.25872 | 36227 ft | 453 kts | 275° |
| 2026-05-05 18:27 | 50.09482 | -108.35731 | 36227 ft | 453 kts | 275° |
| 2026-05-05 18:28 | 50.09264 | -108.50414 | 36216 ft | 453 kts | 275° |
| 2026-05-05 18:28 | 50.09107 | -108.60261 | 36194 ft | 453 kts | 275° |
| 2026-05-05 18:29 | 50.08943 | -108.70040 | 36229 ft | 453 kts | 275° |
| 2026-05-05 18:29 | 50.08771 | -108.79809 | 36238 ft | 453 kts | 275° |
| 2026-05-05 18:30 | 50.08589 | -108.89644 | 36239 ft | 453 kts | 275° |
| 2026-05-05 18:30 | 50.08401 | -108.99419 | 36228 ft | 453 kts | 275° |
| 2026-05-05 18:31 | 50.08206 | -109.09242 | 36203 ft | 453 kts | 276° |
| 2026-05-05 18:31 | 50.08005 | -109.18989 | 36244 ft | 451 kts | 276° |
| 2026-05-05 18:32 | 50.07795 | -109.28767 | 36242 ft | 451 kts | 276° |
| 2026-05-05 18:32 | 50.07578 | -109.38549 | 36243 ft | 451 kts | 276° |
| 2026-05-05 18:33 | 50.07354 | -109.48256 | 36249 ft | 451 kts | 276° |
| 2026-05-05 18:33 | 50.07121 | -109.58039 | 36225 ft | 451 kts | 277° |
| 2026-05-05 18:34 | 50.06883 | -109.67730 | 36250 ft | 450 kts | 277° |
| 2026-05-05 18:34 | 50.06635 | -109.77483 | 36256 ft | 450 kts | 277° |
| 2026-05-05 18:35 | 50.06380 | -109.87198 | 36252 ft | 450 kts | 277° |
| 2026-05-05 18:35 | 50.06117 | -109.96949 | 36250 ft | 450 kts | 276° |
| 2026-05-05 18:36 | 50.05983 | -110.06661 | 36227 ft | 446 kts | 279° |
| 2026-05-05 18:36 | 50.05897 | -110.16249 | 36256 ft | 445 kts | 279° |
| 2026-05-05 18:37 | 50.05805 | -110.25891 | 36270 ft | 445 kts | 279° |
| 2026-05-05 18:37 | 50.05705 | -110.35472 | 36255 ft | 445 kts | 279° |
| 2026-05-05 18:38 | 50.05597 | -110.45126 | 36253 ft | 445 kts | 279° |
| 2026-05-05 18:38 | 50.05482 | -110.54705 | 36223 ft | 444 kts | 280° |
| 2026-05-05 18:39 | 50.05358 | -110.64315 | 36199 ft | 443 kts | 280° |
| 2026-05-05 18:39 | 50.05227 | -110.73837 | 36202 ft | 442 kts | 280° |
| 2026-05-05 18:40 | 50.05088 | -110.83444 | 36209 ft | 443 kts | 280° |
| 2026-05-05 18:40 | 50.04940 | -110.93044 | 36208 ft | 443 kts | 280° |
| 2026-05-05 18:41 | 50.04787 | -111.02563 | 36176 ft | 442 kts | 280° |
| 2026-05-05 18:41 | 50.04625 | -111.12113 | 36226 ft | 440 kts | 280° |
| 2026-05-05 18:42 | 50.04527 | -111.21629 | 36239 ft | 437 kts | 282° |
| 2026-05-05 18:42 | 50.04521 | -111.31054 | 36249 ft | 438 kts | 281° |
| 2026-05-05 18:43 | 50.04497 | -111.40541 | 36237 ft | 438 kts | 281° |
| 2026-05-05 18:43 | 50.04464 | -111.50029 | 36203 ft | 437 kts | 282° |
| 2026-05-05 18:44 | 50.04424 | -111.59389 | 36253 ft | 435 kts | 282° |
| 2026-05-05 18:44 | 50.04376 | -111.68806 | 36257 ft | 434 kts | 282° |
| 2026-05-05 18:45 | 50.04322 | -111.78166 | 36259 ft | 435 kts | 281° |
| 2026-05-05 18:45 | 50.04259 | -111.87596 | 36258 ft | 435 kts | 281° |
| 2026-05-05 18:46 | 50.04188 | -111.97011 | 36213 ft | 435 kts | 281° |
| 2026-05-05 18:46 | 50.04111 | -112.06337 | 36262 ft | 434 kts | 281° |
| 2026-05-05 18:47 | 50.04026 | -112.15743 | 36261 ft | 433 kts | 281° |
| 2026-05-05 18:47 | 50.03933 | -112.25134 | 36268 ft | 434 kts | 281° |
| 2026-05-05 18:48 | 50.03833 | -112.34464 | 36263 ft | 434 kts | 281° |
| 2026-05-05 18:48 | 50.03725 | -112.43860 | 36262 ft | 434 kts | 281° |
| 2026-05-05 18:49 | 50.03609 | -112.53271 | 36254 ft | 435 kts | 281° |
| 2026-05-05 18:49 | 50.03486 | -112.62644 | 36253 ft | 435 kts | 281° |
| 2026-05-05 18:50 | 50.03355 | -112.72065 | 36245 ft | 435 kts | 281° |
| 2026-05-05 18:50 | 50.03240 | -112.79901 | 36252 ft | 436 kts | 281° |
| 2026-05-05 18:51 | 50.03069 | -112.90885 | 36251 ft | 436 kts | 281° |
| 2026-05-05 18:51 | 50.02941 | -112.98753 | 36253 ft | 436 kts | 281° |
| 2026-05-05 18:52 | 50.02780 | -113.08189 | 36260 ft | 436 kts | 281° |
| 2026-05-05 18:52 | 50.02613 | -113.17571 | 36259 ft | 436 kts | 281° |
| 2026-05-05 18:53 | 50.02436 | -113.27044 | 36256 ft | 436 kts | 281° |
| 2026-05-05 18:53 | 50.02253 | -113.36452 | 36256 ft | 436 kts | 280° |
| 2026-05-05 18:54 | 50.02061 | -113.45906 | 36236 ft | 436 kts | 280° |
| 2026-05-05 18:54 | 50.01863 | -113.55305 | 36262 ft | 437 kts | 280° |
| 2026-05-05 18:55 | 50.01656 | -113.64763 | 36269 ft | 436 kts | 280° |
| 2026-05-05 18:55 | 50.01442 | -113.74156 | 36271 ft | 436 kts | 280° |
| 2026-05-05 18:56 | 50.01220 | -113.83625 | 36276 ft | 437 kts | 280° |
| 2026-05-05 18:56 | 50.00991 | -113.93009 | 36213 ft | 436 kts | 280° |
| 2026-05-05 18:57 | 50.00755 | -114.02404 | 36287 ft | 433 kts | 280° |
| 2026-05-05 18:57 | 50.00512 | -114.11757 | 36278 ft | 432 kts | 280° |
| 2026-05-05 18:58 | 50.00262 | -114.21099 | 36269 ft | 432 kts | 280° |
| 2026-05-05 18:58 | 50.00006 | -114.30381 | 36265 ft | 432 kts | 280° |
| 2026-05-05 18:59 | 49.99740 | -114.39747 | 36272 ft | 433 kts | 280° |
| 2026-05-05 18:59 | 49.99468 | -114.49069 | 36241 ft | 433 kts | 279° |
| 2026-05-05 19:00 | 49.99188 | -114.58387 | 36235 ft | 432 kts | 279° |
| 2026-05-05 19:00 | 49.98902 | -114.67730 | 36234 ft | 432 kts | 279° |
| 2026-05-05 19:01 | 49.98606 | -114.77094 | 36236 ft | 432 kts | 279° |
| 2026-05-05 19:01 | 49.98304 | -114.86395 | 36190 ft | 434 kts | 279° |
| 2026-05-05 19:02 | 49.97993 | -114.95746 | 36189 ft | 433 kts | 279° |
| 2026-05-05 19:02 | 49.97675 | -115.05117 | 36221 ft | 434 kts | 279° |
| 2026-05-05 19:03 | 49.97350 | -115.14440 | 36142 ft | 433 kts | 279° |
| 2026-05-05 19:03 | 49.97018 | -115.23773 | 36138 ft | 433 kts | 279° |
| 2026-05-05 19:04 | 49.96675 | -115.33163 | 36139 ft | 433 kts | 279° |
| 2026-05-05 19:04 | 49.96328 | -115.42454 | 36072 ft | 432 kts | 278° |
| 2026-05-05 19:05 | 49.95973 | -115.51796 | 36111 ft | 433 kts | 278° |
| 2026-05-05 19:05 | 49.95612 | -115.61104 | 36116 ft | 433 kts | 278° |
| 2026-05-05 19:06 | 49.95240 | -115.70464 | 36076 ft | 433 kts | 278° |
| 2026-05-05 19:06 | 49.94861 | -115.79822 | 36106 ft | 434 kts | 278° |
| 2026-05-05 19:07 | 49.94475 | -115.89166 | 36063 ft | 433 kts | 277° |
| 2026-05-05 19:07 | 49.94084 | -115.98469 | 36110 ft | 434 kts | 277° |
| 2026-05-05 19:08 | 49.93682 | -116.07825 | 36143 ft | 434 kts | 277° |
| 2026-05-05 19:08 | 49.93273 | -116.17195 | 36121 ft | 434 kts | 277° |
| 2026-05-05 19:09 | 49.92857 | -116.26537 | 36057 ft | 434 kts | 277° |
| 2026-05-05 19:09 | 49.92433 | -116.35877 | 36054 ft | 436 kts | 277° |
| 2026-05-05 19:10 | 49.91999 | -116.45273 | 36098 ft | 436 kts | 276° |
| 2026-05-05 19:10 | 49.91561 | -116.54611 | 36084 ft | 436 kts | 276° |
| 2026-05-05 19:11 | 49.91112 | -116.63988 | 36047 ft | 435 kts | 276° |
| 2026-05-05 19:11 | 49.90658 | -116.73363 | 36016 ft | 436 kts | 276° |
| 2026-05-05 19:12 | 49.90194 | -116.82733 | 36068 ft | 438 kts | 276° |
| 2026-05-05 19:12 | 49.89725 | -116.92063 | 36008 ft | 434 kts | 276° |
| 2026-05-05 19:13 | 49.89245 | -117.01454 | 36026 ft | 437 kts | 275° |
| 2026-05-05 19:13 | 49.88759 | -117.10842 | 36052 ft | 437 kts | 275° |
| 2026-05-05 19:14 | 49.88263 | -117.20264 | 36021 ft | 437 kts | 275° |
| 2026-05-05 19:14 | 49.87763 | -117.29598 | 36018 ft | 437 kts | 275° |
| 2026-05-05 19:15 | 49.87253 | -117.39000 | 36049 ft | 438 kts | 275° |
| 2026-05-05 19:15 | 49.86732 | -117.48430 | 36010 ft | 437 kts | 275° |
| 2026-05-05 19:16 | 49.86211 | -117.57760 | 36053 ft | 438 kts | 275° |
| 2026-05-05 19:16 | 49.85675 | -117.67186 | 36002 ft | 437 kts | 275° |
| 2026-05-05 19:17 | 49.85134 | -117.76577 | 36021 ft | 439 kts | 275° |
| 2026-05-05 19:17 | 49.84583 | -117.86018 | 36053 ft | 438 kts | 274° |
| 2026-05-05 19:18 | 49.84027 | -117.95373 | 36071 ft | 436 kts | 274° |
| 2026-05-05 19:18 | 49.83464 | -118.04758 | 35974 ft | 435 kts | 274° |
| 2026-05-05 19:19 | 49.82895 | -118.14102 | 36014 ft | 438 kts | 274° |
| 2026-05-05 19:19 | 49.82315 | -118.23509 | 36011 ft | 437 kts | 274° |
| 2026-05-05 19:20 | 49.81732 | -118.32820 | 35985 ft | 436 kts | 273° |
| 2026-05-05 19:20 | 49.81140 | -118.42181 | 36007 ft | 437 kts | 273° |
| 2026-05-05 19:21 | 49.80538 | -118.51552 | 35985 ft | 437 kts | 273° |
| 2026-05-05 19:21 | 49.79931 | -118.60890 | 35995 ft | 437 kts | 273° |
| 2026-05-05 19:22 | 49.79314 | -118.70271 | 35982 ft | 436 kts | 273° |
| 2026-05-05 19:22 | 49.78692 | -118.79605 | 35978 ft | 437 kts | 273° |
| 2026-05-05 19:23 | 49.78062 | -118.88956 | 35997 ft | 436 kts | 273° |
| 2026-05-05 19:23 | 49.77423 | -118.98305 | 36005 ft | 436 kts | 272° |
| 2026-05-05 19:24 | 49.76781 | -119.07600 | 35995 ft | 436 kts | 272° |
| 2026-05-05 19:24 | 49.76128 | -119.16936 | 35996 ft | 437 kts | 272° |
| 2026-05-05 19:25 | 49.75469 | -119.26256 | 35964 ft | 436 kts | 272° |
| 2026-05-05 19:25 | 49.74800 | -119.35600 | 35996 ft | 437 kts | 272° |
| 2026-05-05 19:26 | 49.74125 | -119.44935 | 35997 ft | 436 kts | 272° |
| 2026-05-05 19:26 | 49.73445 | -119.54218 | 35982 ft | 436 kts | 272° |
| 2026-05-05 19:27 | 49.72755 | -119.63541 | 36011 ft | 437 kts | 272° |
| 2026-05-05 19:27 | 49.72056 | -119.72861 | 35944 ft | 433 kts | 271° |
| 2026-05-05 19:28 | 49.71370 | -119.81947 | 35991 ft | 424 kts | 271° |
| 2026-05-05 19:28 | 49.70679 | -119.90982 | 35994 ft | 422 kts | 271° |
| 2026-05-05 19:29 | 49.69981 | -120.00016 | 35974 ft | 423 kts | 271° |
| 2026-05-05 19:29 | 49.69280 | -120.08997 | 36013 ft | 424 kts | 271° |
| 2026-05-05 19:30 | 49.68566 | -120.18041 | 35989 ft | 422 kts | 271° |
| 2026-05-05 19:30 | 49.67853 | -120.26998 | 36008 ft | 423 kts | 270° |
| 2026-05-05 19:31 | 49.67125 | -120.36041 | 36010 ft | 423 kts | 270° |
| 2026-05-05 19:31 | 49.66395 | -120.45030 | 36004 ft | 423 kts | 270° |
| 2026-05-05 19:32 | 49.65655 | -120.54051 | 36020 ft | 423 kts | 270° |
| 2026-05-05 19:32 | 49.64907 | -120.63075 | 36003 ft | 423 kts | 270° |
| 2026-05-05 19:33 | 49.64152 | -120.72099 | 35989 ft | 423 kts | 269° |
| 2026-05-05 19:33 | 49.63394 | -120.81074 | 35993 ft | 423 kts | 269° |
| 2026-05-05 19:34 | 49.62624 | -120.90102 | 35996 ft | 423 kts | 269° |
| 2026-05-05 19:35 | 49.61463 | -121.03569 | 36002 ft | 424 kts | 269° |
| 2026-05-05 19:35 | 49.60679 | -121.12582 | 36005 ft | 423 kts | 269° |
| 2026-05-05 19:36 | 49.59891 | -121.21571 | 35992 ft | 422 kts | 269° |
| 2026-05-05 19:36 | 49.59094 | -121.30585 | 35993 ft | 424 kts | 269° |
| 2026-05-05 19:37 | 49.58294 | -121.39547 | 35960 ft | 423 kts | 269° |
| 2026-05-05 19:37 | 49.57487 | -121.48501 | 36044 ft | 425 kts | 268° |
| 2026-05-05 19:38 | 49.56669 | -121.57509 | 35974 ft | 422 kts | 268° |
| 2026-05-05 19:38 | 49.55985 | -121.64999 | 35992 ft | 425 kts | 268° |
| 2026-05-05 19:39 | 49.55159 | -121.73963 | 35979 ft | 424 kts | 268° |
| 2026-05-05 19:39 | 49.54321 | -121.82971 | 35965 ft | 425 kts | 268° |
| 2026-05-05 19:40 | 49.53484 | -121.91909 | 36014 ft | 424 kts | 268° |
| 2026-05-05 19:40 | 49.52632 | -122.00920 | 35999 ft | 424 kts | 268° |
| 2026-05-05 19:41 | 49.51762 | -122.09921 | 35977 ft | 423 kts | 267° |
| 2026-05-05 19:41 | 49.50924 | -122.18854 | 35952 ft | 425 kts | 267° |
| 2026-05-05 19:42 | 49.50085 | -122.27859 | 36039 ft | 426 kts | 267° |
| 2026-05-05 19:42 | 49.49250 | -122.36878 | 36035 ft | 423 kts | 267° |
| 2026-05-05 19:43 | 49.48431 | -122.45821 | 36020 ft | 424 kts | 267° |
| 2026-05-05 19:43 | 49.47597 | -122.54805 | 36035 ft | 422 kts | 267° |
| 2026-05-05 19:44 | 49.46771 | -122.63743 | 36033 ft | 425 kts | 268° |
| 2026-05-05 19:44 | 49.45978 | -122.72721 | 36060 ft | 422 kts | 268° |
| 2026-05-05 19:45 | 49.45179 | -122.81696 | 36024 ft | 422 kts | 268° |
| 2026-05-05 19:45 | 49.44388 | -122.90599 | 36034 ft | 423 kts | 268° |
| 2026-05-05 19:46 | 49.43595 | -122.99528 | 36029 ft | 423 kts | 268° |
| 2026-05-05 19:46 | 49.42812 | -123.08485 | 36038 ft | 422 kts | 268° |
| 2026-05-05 19:47 | 49.42055 | -123.17409 | 36013 ft | 423 kts | 268° |
| 2026-05-05 19:47 | 49.41291 | -123.26366 | 36036 ft | 423 kts | 268° |
| 2026-05-05 19:48 | 49.40525 | -123.35345 | 36042 ft | 423 kts | 268° |
| 2026-05-05 19:48 | 49.39766 | -123.44256 | 36028 ft | 423 kts | 268° |
| 2026-05-05 19:49 | 49.39004 | -123.53232 | 36028 ft | 423 kts | 268° |
| 2026-05-05 19:49 | 49.38268 | -123.62212 | 36025 ft | 423 kts | 268° |
| 2026-05-05 19:50 | 49.37540 | -123.71126 | 36025 ft | 423 kts | 268° |
| 2026-05-05 19:50 | 49.36818 | -123.80093 | 36017 ft | 422 kts | 268° |
| 2026-05-05 19:51 | 49.36119 | -123.89043 | 36020 ft | 422 kts | 268° |
| 2026-05-05 19:51 | 49.35426 | -123.97938 | 36024 ft | 422 kts | 268° |
| 2026-05-05 19:52 | 49.34751 | -124.06884 | 36018 ft | 422 kts | 268° |